Time;durP1;ratioP1;P1;durP2;ratioP2;P2;SDS_P1;SDS_P2;PMS_P1;PMS_P2;Temp;Humidity;BMP_temperature;BMP_pressure;BME280_temperature;BME280_humidity;BME280_pressure;Samples;Min_cycle;Max_cycle;Signal;HPM_P1;HPM_P2
2023/04/01 00:00:09;;;;;;;9.50;9.00;;;;;;;;;;5108454;28;20040;-62
2023/04/01 00:02:35;;;;;;;9.30;8.80;;;;;;;;;;5107113;28;20055;-63
2023/04/01 00:05:01;;;;;;;9.80;9.30;;;;;;;;;;5115480;28;20402;-64
2023/04/01 00:07:26;;;;;;;10.00;9.50;;;;;;;;;;5115940;27;20015;-62
2023/04/01 00:09:52;;;;;;;10.00;9.50;;;;;;;;;;5115214;28;20031;-62
2023/04/01 00:12:17;;;;;;;9.55;9.05;;;;;;;;;;5114789;28;20077;-62
2023/04/01 00:14:42;;;;;;;9.63;9.13;;;;;;;;;;5115087;28;20023;-62
2023/04/01 00:17:08;;;;;;;9.45;9.02;;;;;;;;;;5100463;28;20048;-63
2023/04/01 00:19:33;;;;;;;9.13;8.73;;;;;;;;;;5114316;28;20023;-62
2023/04/01 00:21:59;;;;;;;9.30;8.90;;;;;;;;;;5113681;28;20016;-62
2023/04/01 00:24:24;;;;;;;10.20;9.70;;;;;;;;;;5120671;27;20046;-63
2023/04/01 00:26:49;;;;;;;9.35;8.88;;;;;;;;;;5122735;27;20019;-62
2023/04/01 00:29:15;;;;;;;9.70;9.20;;;;;;;;;;5114835;28;20034;-62
2023/04/01 00:31:40;;;;;;;9.77;9.27;;;;;;;;;;5113478;28;20020;-62
2023/04/01 00:34:05;;;;;;;9.38;8.95;;;;;;;;;;5114646;28;20466;-62
2023/04/01 00:36:31;;;;;;;10.30;9.70;;;;;;;;;;5113438;28;20007;-63
2023/04/01 00:38:58;;;;;;;10.10;9.60;;;;;;;;;;5113777;28;20432;-62
2023/04/01 00:41:25;;;;;;;9.98;9.48;;;;;;;;;;5113223;27;20479;-62
2023/04/01 00:43:52;;;;;;;9.25;8.85;;;;;;;;;;5108411;28;20035;-62
2023/04/01 00:46:18;;;;;;;10.38;9.77;;;;;;;;;;5111954;28;20042;-62
2023/04/01 00:48:50;;;;;;;11.02;10.40;;;;;;;;;;5105317;28;20650;-61
2023/04/01 00:51:21;;;;;;;10.23;9.73;;;;;;;;;;5114296;28;20459;-62
2023/04/01 00:53:49;;;;;;;10.23;9.73;;;;;;;;;;5113519;28;20020;-62
2023/04/01 00:56:22;;;;;;;9.52;9.05;;;;;;;;;;5114294;28;20110;-62
2023/04/01 00:58:49;;;;;;;10.00;9.50;;;;;;;;;;5107916;27;20015;-63
2023/04/01 01:01:15;;;;;;;9.68;9.18;;;;;;;;;;5113674;28;20051;-62
2023/04/01 01:03:40;;;;;;;10.52;9.95;;;;;;;;;;5112021;28;20374;-61
2023/04/01 01:06:10;;;;;;;9.90;9.40;;;;;;;;;;5113679;28;20019;-61
2023/04/01 01:08:50;;;;;;;10.02;9.52;;;;;;;;;;5113686;28;20379;-62
2023/04/01 01:11:17;;;;;;;10.40;9.85;;;;;;;;;;5105367;28;20103;-62
2023/04/01 01:13:56;;;;;;;10.95;10.25;;;;;;;;;;5113426;28;20023;-62
2023/04/01 01:16:25;;;;;;;9.95;9.45;;;;;;;;;;5114136;28;20223;-62
2023/04/01 01:19:09;;;;;;;9.80;9.30;;;;;;;;;;5114304;28;20011;-62
2023/04/01 01:21:35;;;;;;;11.30;10.60;;;;;;;;;;5111124;28;20015;-62
2023/04/01 01:24:09;;;;;;;9.65;9.15;;;;;;;;;;5113853;28;20026;-62
2023/04/01 01:26:40;;;;;;;9.65;9.15;;;;;;;;;;5112698;28;20037;-62
2023/04/01 01:29:15;;;;;;;9.82;9.32;;;;;;;;;;5113506;28;20027;-62
2023/04/01 01:31:43;;;;;;;9.88;9.38;;;;;;;;;;5114960;28;20023;-62
2023/04/01 01:34:18;;;;;;;9.60;9.10;;;;;;;;;;5100400;28;20026;-63
2023/04/01 01:36:45;;;;;;;9.63;9.13;;;;;;;;;;5109042;28;20024;-62
2023/04/01 01:39:12;;;;;;;9.30;8.90;;;;;;;;;;5091260;28;20019;-62
2023/04/01 01:41:38;;;;;;;9.90;9.40;;;;;;;;;;5113403;28;20019;-62
2023/04/01 01:44:06;;;;;;;9.65;9.15;;;;;;;;;;5112629;28;20095;-62
2023/04/01 01:46:31;;;;;;;9.52;9.07;;;;;;;;;;5110967;28;20026;-61
2023/04/01 01:48:57;;;;;;;9.77;9.27;;;;;;;;;;5113149;27;20020;-62
2023/04/01 01:51:23;;;;;;;9.50;9.10;;;;;;;;;;5112552;28;20496;-62
2023/04/01 01:53:48;;;;;;;9.80;9.30;;;;;;;;;;5109292;28;20107;-62
2023/04/01 01:56:13;;;;;;;9.68;9.18;;;;;;;;;;5104297;28;20386;-62
2023/04/01 01:58:43;;;;;;;9.05;8.65;;;;;;;;;;5113203;28;20015;-62
2023/04/01 02:01:11;;;;;;;9.00;8.60;;;;;;;;;;5111060;28;20072;-63
2023/04/01 02:03:38;;;;;;;9.70;9.20;;;;;;;;;;5112736;28;20352;-63
2023/04/01 02:06:05;;;;;;;9.80;9.30;;;;;;;;;;5113328;27;20020;-62
2023/04/01 02:08:33;;;;;;;9.63;9.13;;;;;;;;;;5112620;28;20040;-62
2023/04/01 02:11:06;;;;;;;9.10;8.70;;;;;;;;;;5108609;28;20015;-62
2023/04/01 02:13:42;;;;;;;9.57;9.07;;;;;;;;;;5112802;28;20031;-61
2023/04/01 02:16:17;;;;;;;9.25;8.85;;;;;;;;;;5112724;28;20012;-63
2023/04/01 02:18:44;;;;;;;9.77;9.27;;;;;;;;;;5098546;28;20019;-62
2023/04/01 02:21:10;;;;;;;9.20;8.80;;;;;;;;;;5112893;28;20012;-63
2023/04/01 02:23:36;;;;;;;8.95;8.55;;;;;;;;;;5094812;28;20375;-63
2023/04/01 02:26:02;;;;;;;9.45;8.95;;;;;;;;;;5111055;28;20019;-63
2023/04/01 02:28:28;;;;;;;9.82;9.32;;;;;;;;;;5112422;28;20019;-62
2023/04/01 02:30:53;;;;;;;9.40;8.93;;;;;;;;;;5112461;28;20023;-63
2023/04/01 02:33:20;;;;;;;9.20;8.80;;;;;;;;;;5101142;28;20024;-63
2023/04/01 02:35:45;;;;;;;9.63;9.13;;;;;;;;;;5117389;27;20020;-61
2023/04/01 02:38:10;;;;;;;8.93;8.52;;;;;;;;;;5112397;28;20020;-62
2023/04/01 02:40:46;;;;;;;9.60;9.10;;;;;;;;;;5113016;28;20426;-62
2023/04/01 02:43:12;;;;;;;10.57;9.98;;;;;;;;;;5105653;28;20027;-62
2023/04/01 02:45:37;;;;;;;9.60;9.10;;;;;;;;;;5111405;28;20613;-62
2023/04/01 02:48:03;;;;;;;9.20;8.80;;;;;;;;;;5109931;28;20441;-62
2023/04/01 02:50:28;;;;;;;8.82;8.43;;;;;;;;;;5112691;28;20486;-62
2023/04/01 02:52:53;;;;;;;9.35;8.93;;;;;;;;;;5111313;28;20019;-62
2023/04/01 02:55:19;;;;;;;9.80;9.30;;;;;;;;;;5112021;28;20024;-62
2023/04/01 02:57:44;;;;;;;9.60;9.10;;;;;;;;;;5112819;28;20023;-62
2023/04/01 03:00:11;;;;;;;9.43;9.02;;;;;;;;;;5108177;28;20040;-62
2023/04/01 03:02:37;;;;;;;9.38;8.98;;;;;;;;;;5114647;28;20023;-62
2023/04/01 03:05:02;;;;;;;9.65;9.15;;;;;;;;;;5116492;28;20039;-62
2023/04/01 03:07:28;;;;;;;10.00;9.50;;;;;;;;;;5096691;27;20466;-62
2023/04/01 03:09:53;;;;;;;9.43;8.93;;;;;;;;;;5119695;27;20019;-62
2023/04/01 03:12:18;;;;;;;9.45;9.00;;;;;;;;;;5109151;28;20031;-62
2023/04/01 03:14:44;;;;;;;9.68;9.18;;;;;;;;;;5111642;27;20466;-62
2023/04/01 03:17:09;;;;;;;9.85;9.35;;;;;;;;;;5115266;28;20474;-62
2023/04/01 03:19:34;;;;;;;10.02;9.52;;;;;;;;;;5116277;28;20352;-62
2023/04/01 03:22:00;;;;;;;9.30;8.90;;;;;;;;;;5115950;28;20393;-63
2023/04/01 03:24:25;;;;;;;9.60;9.10;;;;;;;;;;5115992;28;20538;-62
2023/04/01 03:26:50;;;;;;;9.02;8.63;;;;;;;;;;5115429;28;20023;-62
2023/04/01 03:29:16;;;;;;;10.93;10.32;;;;;;;;;;5114520;28;20051;-62
2023/04/01 03:31:41;;;;;;;9.80;9.30;;;;;;;;;;5111961;27;20500;-62
2023/04/01 03:34:06;;;;;;;9.68;9.18;;;;;;;;;;5109492;28;20031;-62
2023/04/01 03:36:32;;;;;;;10.77;10.18;;;;;;;;;;5114207;27;20047;-62
2023/04/01 03:38:57;;;;;;;9.23;8.82;;;;;;;;;;5116204;28;20026;-62
2023/04/01 03:41:22;;;;;;;10.20;9.70;;;;;;;;;;5115584;28;20043;-62
2023/04/01 03:43:48;;;;;;;9.88;9.38;;;;;;;;;;5114620;28;20031;-62
2023/04/01 03:46:17;;;;;;;10.13;9.63;;;;;;;;;;5115359;28;20106;-63
2023/04/01 03:48:42;;;;;;;9.80;9.30;;;;;;;;;;5115535;27;20029;-63
2023/04/01 03:51:08;;;;;;;9.50;9.05;;;;;;;;;;5115598;28;20019;-63
2023/04/01 03:53:33;;;;;;;9.98;9.48;;;;;;;;;;5115683;28;20065;-63
2023/04/01 03:55:58;;;;;;;10.02;9.52;;;;;;;;;;5114231;28;20030;-62
2023/04/01 03:58:24;;;;;;;10.02;9.52;;;;;;;;;;5116493;28;20051;-62
2023/04/01 04:00:49;;;;;;;9.45;9.00;;;;;;;;;;5108806;28;20036;-62
2023/04/01 04:03:14;;;;;;;10.23;9.73;;;;;;;;;;5109344;28;20026;-63
2023/04/01 04:05:46;;;;;;;10.35;9.77;;;;;;;;;;5111459;27;20027;-63
2023/04/01 04:08:11;;;;;;;10.05;9.55;;;;;;;;;;5112002;27;20054;-61
2023/04/01 04:10:37;;;;;;;10.38;9.77;;;;;;;;;;5096729;28;20117;-63
2023/04/01 04:13:02;;;;;;;9.85;9.35;;;;;;;;;;5110160;28;20113;-62
2023/04/01 04:15:28;;;;;;;10.70;10.10;;;;;;;;;;5107603;28;20035;-61
2023/04/01 04:17:53;;;;;;;9.95;9.45;;;;;;;;;;5109350;28;20016;-61
2023/04/01 04:20:18;;;;;;;9.80;9.30;;;;;;;;;;5099612;28;20024;-61
2023/04/01 04:22:44;;;;;;;10.02;9.52;;;;;;;;;;5099560;27;20024;-60
2023/04/01 04:25:09;;;;;;;9.70;9.20;;;;;;;;;;5117255;27;20027;-60
2023/04/01 04:27:35;;;;;;;9.52;9.05;;;;;;;;;;5102222;27;20081;-60
2023/04/01 04:30:00;;;;;;;9.93;9.43;;;;;;;;;;5109116;28;20024;-61
2023/04/01 04:32:26;;;;;;;9.82;9.32;;;;;;;;;;5112973;28;20092;-61
2023/04/01 04:34:51;;;;;;;9.70;9.20;;;;;;;;;;5107222;27;20081;-61
2023/04/01 04:37:16;;;;;;;10.40;9.82;;;;;;;;;;5104907;28;20073;-62
2023/04/01 04:39:41;;;;;;;9.88;9.38;;;;;;;;;;5114949;27;20069;-62
2023/04/01 04:42:07;;;;;;;9.60;9.10;;;;;;;;;;5114294;28;20019;-62
2023/04/01 04:44:32;;;;;;;9.15;8.75;;;;;;;;;;5105343;28;20081;-61
2023/04/01 04:46:57;;;;;;;9.52;9.05;;;;;;;;;;5099804;28;20023;-62
2023/04/01 04:49:23;;;;;;;9.63;9.13;;;;;;;;;;5114274;28;20020;-62
2023/04/01 04:51:48;;;;;;;9.68;9.18;;;;;;;;;;5112450;28;20025;-62
2023/04/01 04:54:13;;;;;;;9.30;8.90;;;;;;;;;;5114772;28;20038;-61
2023/04/01 04:56:39;;;;;;;9.70;9.23;;;;;;;;;;5096492;28;20023;-62
2023/04/01 04:59:05;;;;;;;9.85;9.35;;;;;;;;;;5113058;28;20015;-61
2023/04/01 05:01:30;;;;;;;9.98;9.48;;;;;;;;;;5112730;28;20043;-62
2023/04/01 05:03:55;;;;;;;10.10;9.60;;;;;;;;;;5113456;28;20016;-61
2023/04/01 05:06:21;;;;;;;9.40;9.00;;;;;;;;;;5114051;28;20035;-61
2023/04/01 05:08:46;;;;;;;9.48;9.07;;;;;;;;;;5111292;28;20016;-62
2023/04/01 05:11:13;;;;;;;9.90;9.40;;;;;;;;;;5114187;28;20027;-61
2023/04/01 05:13:39;;;;;;;9.85;9.35;;;;;;;;;;5106945;27;20030;-63
2023/04/01 05:16:07;;;;;;;9.80;9.30;;;;;;;;;;5112945;28;20036;-61
2023/04/01 05:18:33;;;;;;;9.90;9.40;;;;;;;;;;5101335;28;20012;-62
2023/04/01 05:20:59;;;;;;;9.00;8.60;;;;;;;;;;5113145;28;20016;-61
2023/04/01 05:23:24;;;;;;;9.60;9.10;;;;;;;;;;5113658;28;20428;-61
2023/04/01 05:25:50;;;;;;;9.73;9.23;;;;;;;;;;5109906;28;20100;-61
2023/04/01 05:28:16;;;;;;;9.93;9.43;;;;;;;;;;5112876;28;20098;-62
2023/04/01 05:30:41;;;;;;;9.40;9.00;;;;;;;;;;5113564;28;20513;-62
2023/04/01 05:33:07;;;;;;;9.40;9.00;;;;;;;;;;5113470;28;20117;-61
2023/04/01 05:35:32;;;;;;;9.77;9.27;;;;;;;;;;5113487;28;20024;-61
2023/04/01 05:37:58;;;;;;;10.93;10.32;;;;;;;;;;5093395;28;20027;-61
2023/04/01 05:40:23;;;;;;;9.77;9.27;;;;;;;;;;5112928;28;20027;-61
2023/04/01 05:42:48;;;;;;;9.95;9.45;;;;;;;;;;5106056;28;20032;-61
2023/04/01 05:45:15;;;;;;;9.60;9.10;;;;;;;;;;5113378;28;20026;-61
2023/04/01 05:47:41;;;;;;;10.35;9.85;;;;;;;;;;5113332;28;20026;-61
2023/04/01 05:50:07;;;;;;;10.38;9.85;;;;;;;;;;5112745;28;20487;-61
2023/04/01 05:52:32;;;;;;;10.38;9.88;;;;;;;;;;5073386;28;20019;-62
2023/04/01 05:54:59;;;;;;;9.40;9.00;;;;;;;;;;5113143;28;20429;-61
2023/04/01 05:57:24;;;;;;;9.45;9.02;;;;;;;;;;5112792;28;20055;-61
2023/04/01 05:59:50;;;;;;;10.75;10.15;;;;;;;;;;5111664;28;20074;-61
2023/04/01 06:02:16;;;;;;;9.98;9.48;;;;;;;;;;5094400;28;20638;-62
2023/04/01 06:04:42;;;;;;;10.10;9.60;;;;;;;;;;5112608;28;20097;-62
2023/04/01 06:07:17;;;;;;;10.13;9.63;;;;;;;;;;5108657;27;20417;-62
2023/04/01 06:09:43;;;;;;;9.85;9.35;;;;;;;;;;5100468;28;20103;-62
2023/04/01 06:12:08;;;;;;;9.15;8.75;;;;;;;;;;5112762;28;20034;-62
2023/04/01 06:14:33;;;;;;;9.95;9.45;;;;;;;;;;5112606;28;20027;-62
2023/04/01 06:17:14;;;;;;;9.68;9.18;;;;;;;;;;5111905;28;20028;-62
2023/04/01 06:19:57;;;;;;;10.05;9.55;;;;;;;;;;5099812;28;20474;-62
2023/04/01 06:22:27;;;;;;;9.20;8.80;;;;;;;;;;5109835;28;20024;-63
2023/04/01 06:24:53;;;;;;;10.32;9.82;;;;;;;;;;5111996;28;20011;-61
2023/04/01 06:27:37;;;;;;;10.07;9.57;;;;;;;;;;5112364;28;20026;-61
2023/04/01 06:30:21;;;;;;;10.02;9.52;;;;;;;;;;5102375;28;20020;-61
2023/04/01 06:33:05;;;;;;;9.70;9.20;;;;;;;;;;5112382;28;20023;-60
2023/04/01 06:35:56;;;;;;;10.25;9.75;;;;;;;;;;5102673;28;20075;-60
2023/04/01 06:38:30;;;;;;;10.70;10.20;;;;;;;;;;5077831;28;20039;-61
2023/04/01 06:41:00;;;;;;;10.63;10.13;;;;;;;;;;5109118;28;20080;-61
2023/04/01 06:43:44;;;;;;;10.93;10.43;;;;;;;;;;5107627;28;20171;-62
2023/04/01 06:46:25;;;;;;;10.70;10.20;;;;;;;;;;5103063;28;20035;-61
2023/04/01 06:48:59;;;;;;;10.18;9.68;;;;;;;;;;5112542;27;20106;-61
2023/04/01 06:51:24;;;;;;;;;;;;;;;;;;5106208;27;20038;-62
2023/04/01 06:54:04;;;;;;;10.57;10.07;;;;;;;;;;5109149;27;19958;-62
2023/04/01 06:56:30;;;;;;;10.88;10.38;;;;;;;;;;5121820;28;20461;-64
2023/04/01 06:59:14;;;;;;;10.68;10.18;;;;;;;;;;5114043;28;20090;-63
2023/04/01 07:01:54;;;;;;;11.48;10.88;;;;;;;;;;5117237;27;20172;-62
2023/04/01 07:04:28;;;;;;;11.38;10.77;;;;;;;;;;5107279;28;20398;-63
2023/04/01 07:07:05;;;;;;;10.73;10.23;;;;;;;;;;5116143;28;20023;-62
2023/04/01 07:09:32;;;;;;;10.93;10.43;;;;;;;;;;5114766;28;20076;-64
2023/04/01 07:12:01;;;;;;;11.30;10.70;;;;;;;;;;5111018;28;20031;-61
2023/04/01 07:14:35;;;;;;;10.10;9.60;;;;;;;;;;5109893;28;20055;-62
2023/04/01 07:17:16;;;;;;;11.23;10.63;;;;;;;;;;5113750;28;20172;-65
2023/04/01 07:19:48;;;;;;;10.20;9.70;;;;;;;;;;5102430;28;20069;-64
2023/04/01 07:22:26;;;;;;;10.73;10.23;;;;;;;;;;5103693;28;20471;-66
2023/04/01 07:24:52;;;;;;;11.13;10.55;;;;;;;;;;5107889;28;20019;-64
2023/04/01 07:27:17;;;;;;;10.60;10.10;;;;;;;;;;5120525;28;20102;-64
2023/04/01 07:29:43;;;;;;;10.48;9.98;;;;;;;;;;5114729;28;20020;-63
2023/04/01 07:32:11;;;;;;;10.80;10.30;;;;;;;;;;5112342;28;20080;-66
2023/04/01 07:34:45;;;;;;;10.20;9.70;;;;;;;;;;5125081;28;20355;-65
2023/04/01 07:37:29;;;;;;;10.02;9.55;;;;;;;;;;5107385;28;20024;-65
2023/04/01 07:40:01;;;;;;;9.43;9.02;;;;;;;;;;5121026;28;20027;-65
2023/04/01 07:42:39;;;;;;;10.00;9.50;;;;;;;;;;5099434;28;20024;-63
2023/04/01 07:45:19;;;;;;;10.07;9.57;;;;;;;;;;5111646;28;20027;-66
2023/04/01 07:47:53;;;;;;;10.00;9.50;;;;;;;;;;5099809;28;20028;-63
2023/04/01 07:50:25;;;;;;;10.55;10.05;;;;;;;;;;5108295;27;20023;-65
2023/04/01 07:53:14;;;;;;;10.38;9.88;;;;;;;;;;5128609;27;20130;-65
2023/04/01 07:55:48;;;;;;;10.27;9.77;;;;;;;;;;5102840;28;20112;-64
2023/04/01 07:58:17;;;;;;;10.25;9.75;;;;;;;;;;5116339;27;20360;-64
2023/04/01 08:00:54;;;;;;;10.68;10.18;;;;;;;;;;5108716;27;20413;-64
2023/04/01 08:03:38;;;;;;;9.95;9.45;;;;;;;;;;5108734;27;20027;-64
2023/04/01 08:06:23;;;;;;;9.50;9.10;;;;;;;;;;5117107;27;20502;-63
2023/04/01 08:09:06;;;;;;;10.63;10.13;;;;;;;;;;5113346;27;20441;-65
2023/04/01 08:11:37;;;;;;;10.73;10.20;;;;;;;;;;5106627;28;20024;-65
2023/04/01 08:14:16;;;;;;;9.90;9.40;;;;;;;;;;5113558;27;20019;-64
2023/04/01 08:16:44;;;;;;;10.27;9.77;;;;;;;;;;5103161;28;20028;-63
2023/04/01 08:19:29;;;;;;;10.65;10.15;;;;;;;;;;5118738;27;20030;-62
2023/04/01 08:21:57;;;;;;;10.70;10.20;;;;;;;;;;5114128;27;20024;-62
2023/04/01 08:24:42;;;;;;;10.90;10.32;;;;;;;;;;5101238;27;20105;-63
2023/04/01 08:27:28;;;;;;;10.85;10.25;;;;;;;;;;5112914;27;20108;-62
2023/04/01 08:30:03;;;;;;;10.52;10.02;;;;;;;;;;5096825;27;20119;-64
2023/04/01 08:32:32;;;;;;;10.98;10.38;;;;;;;;;;5119827;27;20025;-64
2023/04/01 08:35:07;;;;;;;11.68;11.05;;;;;;;;;;5112089;27;20027;-65
2023/04/01 08:37:34;;;;;;;11.80;11.20;;;;;;;;;;5104734;27;20098;-64
2023/04/01 08:40:05;;;;;;;10.60;10.10;;;;;;;;;;5105422;28;20478;-64
2023/04/01 08:42:57;;;;;;;10.13;9.63;;;;;;;;;;5117603;27;20539;-62
2023/04/01 08:45:29;;;;;;;9.93;9.43;;;;;;;;;;5113288;27;20027;-63
2023/04/01 08:48:01;;;;;;;10.45;9.95;;;;;;;;;;5108267;27;20034;-63
2023/04/01 08:50:45;;;;;;;10.27;9.77;;;;;;;;;;5109843;27;20024;-65
2023/04/01 08:53:10;;;;;;;10.38;9.88;;;;;;;;;;5113798;27;20038;-63
2023/04/01 08:55:38;;;;;;;10.20;9.70;;;;;;;;;;5108330;27;20031;-64
2023/04/01 08:58:13;;;;;;;10.27;9.77;;;;;;;;;;5121750;27;20049;-64
2023/04/01 09:01:05;;;;;;;10.35;9.85;;;;;;;;;;5124167;27;20049;-64
2023/04/01 09:03:49;;;;;;;10.05;9.55;;;;;;;;;;5117776;27;20204;-66
2023/04/01 09:06:32;;;;;;;10.77;10.25;;;;;;;;;;5114269;27;20078;-65
2023/04/01 09:09:21;;;;;;;10.32;9.82;;;;;;;;;;5118221;27;20111;-64
2023/04/01 09:11:49;;;;;;;10.13;9.63;;;;;;;;;;5113743;27;20050;-65
2023/04/01 09:14:17;;;;;;;10.98;10.40;;;;;;;;;;5121736;27;20055;-65
2023/04/01 09:16:55;;;;;;;10.95;10.35;;;;;;;;;;5114161;27;20019;-64
2023/04/01 09:19:20;;;;;;;11.50;10.90;;;;;;;;;;5122992;27;20019;-63
2023/04/01 09:22:00;;;;;;;10.73;10.20;;;;;;;;;;5100322;27;20019;-65
2023/04/01 09:24:31;;;;;;;10.65;10.15;;;;;;;;;;5101396;27;20363;-65
2023/04/01 09:27:15;;;;;;;11.20;10.60;;;;;;;;;;5098531;27;20057;-62
2023/04/01 09:29:46;;;;;;;10.80;10.27;;;;;;;;;;5108706;27;20024;-62
2023/04/01 09:32:30;;;;;;;10.80;10.30;;;;;;;;;;5110490;27;20038;-61
2023/04/01 09:35:01;;;;;;;10.30;9.80;;;;;;;;;;5113024;27;20034;-62
2023/04/01 09:37:48;;;;;;;10.55;10.05;;;;;;;;;;5111560;28;20115;-62
2023/04/01 09:40:37;;;;;;;10.75;10.25;;;;;;;;;;5108357;27;20030;-62
2023/04/01 09:43:21;;;;;;;11.63;11.02;;;;;;;;;;5099574;28;20088;-62
2023/04/01 09:45:58;;;;;;;10.07;9.57;;;;;;;;;;5108725;27;20030;-62
2023/04/01 09:48:30;;;;;;;11.05;10.45;;;;;;;;;;5111042;27;20687;-62
2023/04/01 09:51:14;;;;;;;10.15;9.65;;;;;;;;;;5107377;28;20055;-61
2023/04/01 09:53:39;;;;;;;11.10;10.55;;;;;;;;;;5107499;27;20068;-61
2023/04/01 09:56:07;;;;;;;10.30;9.80;;;;;;;;;;5105051;27;20487;-61
2023/04/01 09:58:58;;;;;;;10.63;10.13;;;;;;;;;;5100428;27;20042;-61
2023/04/01 10:01:23;;;;;;;10.77;10.27;;;;;;;;;;5102532;27;20093;-61
2023/04/01 10:04:06;;;;;;;10.30;9.80;;;;;;;;;;5108822;27;20068;-61
2023/04/01 10:06:32;;;;;;;10.73;10.23;;;;;;;;;;5102898;27;20028;-61
2023/04/01 10:08:57;;;;;;;12.27;11.63;;;;;;;;;;5104638;27;20022;-62
2023/04/01 10:11:38;;;;;;;11.13;10.55;;;;;;;;;;5097174;27;20031;-63
2023/04/01 10:14:12;;;;;;;11.52;10.93;;;;;;;;;;5102525;27;20112;-62
2023/04/01 10:16:40;;;;;;;11.23;10.63;;;;;;;;;;5111186;27;20028;-63
2023/04/01 10:19:21;;;;;;;12.38;11.70;;;;;;;;;;5111035;27;20573;-64
2023/04/01 10:21:52;;;;;;;12.32;11.68;;;;;;;;;;5107069;27;20042;-63
2023/04/01 10:24:30;;;;;;;11.48;10.88;;;;;;;;;;5117622;27;20033;-63
2023/04/01 10:26:59;;;;;;;10.82;10.32;;;;;;;;;;5109241;27;20038;-63
2023/04/01 10:29:24;;;;;;;11.65;11.05;;;;;;;;;;5114096;27;20020;-63
2023/04/01 10:31:52;;;;;;;11.13;10.60;;;;;;;;;;5103765;27;20024;-63
2023/04/01 10:34:47;;;;;;;10.50;10.00;;;;;;;;;;5113603;27;20505;-62
2023/04/01 10:37:32;;;;;;;11.18;10.60;;;;;;;;;;5106602;27;20092;-63
2023/04/01 10:40:07;;;;;;;11.55;10.95;;;;;;;;;;5108793;27;20027;-63
2023/04/01 10:42:32;;;;;;;11.40;10.80;;;;;;;;;;5095606;27;20055;-62
2023/04/01 10:45:03;;;;;;;11.35;10.75;;;;;;;;;;5109412;28;20043;-61
2023/04/01 10:47:47;;;;;;;12.02;11.43;;;;;;;;;;5120682;28;20436;-63
2023/04/01 10:50:21;;;;;;;11.23;10.63;;;;;;;;;;5108739;27;20027;-62
2023/04/01 10:52:46;;;;;;;11.53;10.93;;;;;;;;;;5108171;28;20517;-62
2023/04/01 10:55:24;;;;;;;10.93;10.43;;;;;;;;;;5105577;27;20149;-62
2023/04/01 10:57:52;;;;;;;11.70;11.10;;;;;;;;;;5111529;28;20146;-62
2023/04/01 11:00:20;;;;;;;11.90;11.30;;;;;;;;;;5102346;28;20048;-61
2023/04/01 11:02:57;;;;;;;12.38;11.68;;;;;;;;;;5106724;28;20482;-62
2023/04/01 11:05:41;;;;;;;11.02;10.50;;;;;;;;;;5106191;28;20024;-62
2023/04/01 11:08:06;;;;;;;10.50;10.00;;;;;;;;;;5110508;28;20035;-62
2023/04/01 11:10:47;;;;;;;11.40;10.80;;;;;;;;;;5105630;28;20027;-63
2023/04/01 11:13:21;;;;;;;12.65;11.95;;;;;;;;;;5103258;28;20039;-62
2023/04/01 11:15:46;;;;;;;;;;;;;;;;;;5115896;28;20019;-65
2023/04/01 11:18:24;;;;;;;11.55;10.95;;;;;;;;;;5113041;28;20290;-64
2023/04/01 11:21:08;;;;;;;11.65;11.05;;;;;;;;;;5104127;28;20166;-62
2023/04/01 11:23:56;;;;;;;11.65;11.05;;;;;;;;;;5106305;27;20032;-64
2023/04/01 11:26:28;;;;;;;12.35;11.68;;;;;;;;;;5083332;27;20044;-64
2023/04/01 11:29:22;;;;;;;11.13;10.52;;;;;;;;;;5108428;27;20019;-64
2023/04/01 11:31:57;;;;;;;10.45;9.95;;;;;;;;;;5097684;27;20038;-63
2023/04/01 11:34:35;;;;;;;11.85;11.25;;;;;;;;;;5094462;28;20384;-64
2023/04/01 11:37:03;;;;;;;11.27;10.68;;;;;;;;;;5111727;27;20066;-63
2023/04/01 11:39:41;;;;;;;11.68;11.07;;;;;;;;;;5109202;27;22084;-63
2023/04/01 11:42:15;;;;;;;11.38;10.77;;;;;;;;;;5118033;27;20109;-64
2023/04/01 11:44:46;;;;;;;11.50;10.90;;;;;;;;;;5119932;27;20081;-65
2023/04/01 11:47:34;;;;;;;11.18;10.57;;;;;;;;;;5115150;27;20500;-66
2023/04/01 11:50:08;;;;;;;11.80;11.20;;;;;;;;;;5108685;27;20126;-62
2023/04/01 11:52:52;;;;;;;11.98;11.38;;;;;;;;;;5119206;27;20027;-64
2023/04/01 11:55:20;;;;;;;13.40;12.70;;;;;;;;;;5101424;27;20020;-65
2023/04/01 11:58:02;;;;;;;12.85;12.15;;;;;;;;;;5112360;27;20031;-64
2023/04/01 12:00:33;;;;;;;13.00;12.30;;;;;;;;;;5105277;27;20492;-64
2023/04/01 12:03:10;;;;;;;11.43;10.82;;;;;;;;;;5114059;27;20052;-63
2023/04/01 12:05:42;;;;;;;11.75;11.15;;;;;;;;;;5103554;27;20028;-63
2023/04/01 12:08:07;;;;;;;10.60;10.10;;;;;;;;;;5120190;27;20378;-64
2023/04/01 12:10:43;;;;;;;12.13;11.52;;;;;;;;;;5118977;27;20020;-63
2023/04/01 12:13:23;;;;;;;11.57;10.98;;;;;;;;;;5111596;27;20062;-63
2023/04/01 12:15:49;;;;;;;11.77;11.18;;;;;;;;;;5109455;27;20031;-64
2023/04/01 12:18:23;;;;;;;11.20;10.65;;;;;;;;;;5119492;27;20087;-64
2023/04/01 12:20:57;;;;;;;11.27;10.73;;;;;;;;;;5117535;27;20459;-63
2023/04/01 12:23:35;;;;;;;11.93;11.32;;;;;;;;;;5109618;27;20028;-63
2023/04/01 12:26:00;;;;;;;11.32;10.73;;;;;;;;;;5109273;27;20026;-63
2023/04/01 12:28:29;;;;;;;10.38;9.88;;;;;;;;;;5105392;27;20019;-63
2023/04/01 12:31:06;;;;;;;11.48;10.88;;;;;;;;;;5094959;27;20056;-64
2023/04/01 12:33:41;;;;;;;12.93;12.23;;;;;;;;;;5113020;27;20023;-63
2023/04/01 12:36:08;;;;;;;;;;;;;;;;;;5109561;27;20088;-64
2023/04/01 12:38:36;;;;;;;11.48;10.88;;;;;;;;;;5101339;27;19912;-63
2023/04/01 12:41:09;;;;;;;12.30;11.70;;;;;;;;;;5113966;27;20106;-62
2023/04/01 12:43:54;;;;;;;11.30;10.70;;;;;;;;;;5105783;28;20019;-65
2023/04/01 12:46:26;;;;;;;11.85;11.25;;;;;;;;;;5117002;27;20455;-63
2023/04/01 12:49:04;;;;;;;11.32;10.73;;;;;;;;;;5098011;27;20031;-63
2023/04/01 12:51:52;;;;;;;11.98;11.38;;;;;;;;;;5113860;27;20031;-62
2023/04/01 12:54:36;;;;;;;11.13;10.60;;;;;;;;;;5101328;27;20039;-63
2023/04/01 12:57:20;;;;;;;11.43;10.83;;;;;;;;;;5105895;27;20432;-61
2023/04/01 12:59:45;;;;;;;12.32;11.73;;;;;;;;;;5110930;27;20123;-62
2023/04/01 13:02:13;;;;;;;11.38;10.77;;;;;;;;;;5115020;27;20104;-61
2023/04/01 13:04:51;;;;;;;11.13;10.63;;;;;;;;;;5112501;27;20023;-63
2023/04/01 13:07:19;;;;;;;11.55;10.95;;;;;;;;;;5101721;28;20019;-62
2023/04/01 13:09:50;;;;;;;11.57;10.98;;;;;;;;;;5113042;27;20424;-61
2023/04/01 13:12:19;;;;;;;12.75;12.07;;;;;;;;;;5113506;27;20023;-60
2023/04/01 13:15:03;;;;;;;11.23;10.70;;;;;;;;;;5113889;27;20053;-60
2023/04/01 13:17:37;;;;;;;10.88;10.38;;;;;;;;;;5115211;27;20060;-63
2023/04/01 13:20:21;;;;;;;11.20;10.70;;;;;;;;;;5120085;27;20026;-62
2023/04/01 13:22:49;;;;;;;11.07;10.57;;;;;;;;;;5098810;27;20425;-62
2023/04/01 13:25:27;;;;;;;11.05;10.55;;;;;;;;;;5098844;27;20027;-61
2023/04/01 13:28:00;;;;;;;11.15;10.65;;;;;;;;;;5112887;27;20039;-62
2023/04/01 13:30:49;;;;;;;11.90;11.30;;;;;;;;;;5109733;27;20119;-61
2023/04/01 13:33:27;;;;;;;10.82;10.32;;;;;;;;;;5110471;27;20019;-61
2023/04/01 13:36:07;;;;;;;11.60;11.00;;;;;;;;;;5111177;27;20134;-63
2023/04/01 13:38:39;;;;;;;11.82;11.23;;;;;;;;;;5106850;27;20039;-61
2023/04/01 13:41:23;;;;;;;11.13;10.63;;;;;;;;;;5113248;27;20089;-61
2023/04/01 13:44:17;;;;;;;10.73;10.23;;;;;;;;;;5113780;27;20012;-61
2023/04/01 13:46:50;;;;;;;11.23;10.70;;;;;;;;;;5095638;27;20028;-62
2023/04/01 13:49:30;;;;;;;10.40;9.90;;;;;;;;;;5108250;27;20032;-62
2023/04/01 13:51:55;;;;;;;11.52;10.93;;;;;;;;;;5104265;27;20019;-62
2023/04/01 13:54:20;;;;;;;11.15;10.65;;;;;;;;;;5117113;27;20390;-63
2023/04/01 13:56:49;;;;;;;11.65;11.05;;;;;;;;;;5107480;27;20169;-63
2023/04/01 13:59:23;;;;;;;11.25;10.73;;;;;;;;;;5104560;27;20034;-61
2023/04/01 14:01:54;;;;;;;11.63;11.02;;;;;;;;;;5113513;27;20034;-63
2023/04/01 14:04:26;;;;;;;11.07;10.57;;;;;;;;;;5114102;27;20110;-63
2023/04/01 14:07:08;;;;;;;11.07;10.57;;;;;;;;;;5102867;27;20624;-61
2023/04/01 14:09:51;;;;;;;10.75;10.25;;;;;;;;;;5110638;27;20369;-61
2023/04/01 14:12:22;;;;;;;10.70;10.20;;;;;;;;;;5114388;27;20043;-62
2023/04/01 14:15:06;;;;;;;11.05;10.55;;;;;;;;;;5111087;27;20058;-62
2023/04/01 14:17:50;;;;;;;10.70;10.20;;;;;;;;;;5120066;27;20486;-62
2023/04/01 14:20:33;;;;;;;11.80;11.20;;;;;;;;;;5097547;27;20031;-63
2023/04/01 14:22:58;;;;;;;10.25;9.75;;;;;;;;;;5105605;27;20492;-63
2023/04/01 14:25:39;;;;;;;9.80;9.40;;;;;;;;;;5110899;28;20047;-62
2023/04/01 14:28:24;;;;;;;11.25;10.65;;;;;;;;;;5116847;27;20088;-64
2023/04/01 14:30:56;;;;;;;11.13;10.57;;;;;;;;;;5098356;27;20028;-63
2023/04/01 14:33:21;;;;;;;11.57;10.98;;;;;;;;;;5100819;28;20575;-64
2023/04/01 14:36:04;;;;;;;12.18;11.57;;;;;;;;;;5114753;27;20154;-62
2023/04/01 14:38:47;;;;;;;11.85;11.25;;;;;;;;;;5103810;27;20080;-64
2023/04/01 14:41:31;;;;;;;11.55;10.95;;;;;;;;;;5107978;27;20489;-62
2023/04/01 14:44:15;;;;;;;11.52;10.93;;;;;;;;;;5116771;27;20031;-63
2023/04/01 14:46:59;;;;;;;11.48;10.88;;;;;;;;;;5103502;27;20547;-63
2023/04/01 14:49:33;;;;;;;11.48;10.88;;;;;;;;;;5118053;27;20020;-63
2023/04/01 14:52:14;;;;;;;11.27;10.68;;;;;;;;;;5112628;27;20748;-63
2023/04/01 14:54:42;;;;;;;12.43;11.75;;;;;;;;;;5095896;27;20736;-62